createdAt,value
2022-08-19T00:00:31.282Z,11.70
2022-08-19T00:05:33.245Z,12.55
2022-08-19T00:10:35.103Z,12.57
2022-08-19T00:15:36.882Z,12.80
2022-08-19T00:20:41.384Z,12.20
2022-08-19T00:25:43.293Z,12.68
2022-08-19T00:30:52.781Z,13.77
2022-08-19T00:35:56.360Z,12.02
2022-08-19T00:40:58.212Z,13.02
2022-08-19T00:46:00.278Z,12.73
2022-08-19T00:51:02.939Z,13.55
2022-08-19T00:56:07.216Z,12.85
2022-08-19T01:01:09.183Z,17.65
2022-08-19T01:06:14.100Z,12.13
2022-08-19T01:11:22.162Z,13.27
2022-08-19T01:16:26.286Z,13.40
2022-08-19T01:21:35.724Z,14.32
2022-08-19T01:26:45.752Z,14.07
2022-08-19T01:31:53.062Z,13.57
2022-08-19T01:36:54.937Z,13.57
2022-08-19T01:52:30.881Z,18.23
2022-08-19T01:57:32.897Z,13.85
2022-08-19T02:02:34.873Z,14.35
2022-08-19T02:07:37.485Z,15.57
2022-08-19T02:12:43.478Z,14.77
2022-08-19T02:17:45.438Z,14.02
2022-08-19T02:22:47.410Z,13.77
2022-08-19T02:27:49.459Z,14.07
2022-08-19T02:32:52.601Z,13.45
2022-08-19T02:38:12.985Z,15.70
2022-08-19T02:43:14.841Z,15.43
2022-08-19T02:48:21.483Z,14.88
2022-08-19T02:53:27.046Z,14.73
2022-08-19T02:58:28.874Z,15.95
2022-08-19T03:03:30.668Z,14.75
2022-08-19T03:08:32.419Z,14.68
2022-08-19T03:13:34.152Z,16.60
2022-08-19T03:18:36.418Z,15.45
2022-08-19T03:23:38.223Z,14.82
2022-08-19T03:28:39.938Z,16.00
2022-08-19T03:33:42.610Z,16.40
2022-08-19T03:38:51.254Z,16.67
2022-08-19T03:43:58.961Z,16.27
2022-08-19T03:49:05.611Z,15.85
2022-08-19T03:54:10.211Z,17.17
2022-08-19T03:59:15.774Z,16.00
2022-08-19T04:04:17.481Z,14.68
2022-08-19T04:09:22.363Z,14.38
2022-08-19T04:14:31.358Z,16.05
2022-08-19T04:19:35.989Z,16.83
2022-08-19T04:24:38.131Z,15.63
2022-08-19T04:29:41.430Z,16.00
2022-08-19T04:35:01.253Z,15.52
2022-08-19T04:40:25.072Z,15.50
2022-08-19T04:45:27.085Z,16.88
2022-08-19T04:50:29.086Z,18.77
2022-08-19T04:55:31.468Z,17.33
2022-08-19T05:00:35.836Z,17.60
2022-08-19T05:05:45.298Z,17.00
2022-08-19T05:10:49.780Z,17.63
2022-08-19T05:15:56.826Z,18.65
2022-08-19T05:21:17.717Z,17.75
2022-08-19T05:26:19.425Z,18.83
2022-08-19T05:31:25.999Z,16.23
2022-08-19T05:36:29.213Z,18.42
2022-08-19T05:41:34.174Z,17.50
2022-08-19T05:46:39.538Z,17.95
2022-08-19T05:51:41.672Z,19.25
2022-08-19T05:56:50.990Z,18.25
2022-08-19T06:01:56.042Z,17.48
2022-08-19T06:06:59.245Z,18.73
2022-08-19T06:12:02.282Z,18.75
2022-08-19T06:17:07.072Z,18.90
2022-08-19T06:22:09.767Z,18.70
2022-08-19T06:27:11.939Z,20.40
2022-08-19T06:32:17.282Z,20.83
2022-08-19T06:37:27.226Z,19.85
2022-08-19T06:42:30.235Z,23.95
2022-08-19T06:47:33.516Z,23.00
2022-08-19T06:52:36.799Z,22.90
2022-08-19T06:57:40.658Z,23.15
2022-08-19T07:02:48.165Z,23.55
2022-08-19T07:07:57.577Z,22.73
2022-08-19T07:13:01.433Z,26.88
2022-08-19T07:18:03.343Z,22.58
2022-08-19T07:23:07.150Z,24.27
2022-08-19T07:28:20.220Z,22.88
2022-08-19T07:33:27.927Z,23.85
2022-08-19T07:38:29.760Z,23.75
2022-08-19T07:43:35.139Z,23.90
2022-08-19T07:49:22.660Z,24.85
2022-08-19T07:54:26.144Z,21.20
2022-08-19T07:59:29.537Z,23.40
2022-08-19T08:04:51.143Z,22.73
2022-08-19T08:15:12.705Z,21.73
2022-08-19T08:20:15.757Z,24.40
2022-08-19T08:25:22.212Z,27.08
2022-08-19T08:30:25.877Z,25.65
2022-08-19T08:35:32.953Z,24.15
2022-08-19T08:40:44.000Z,22.95
2022-08-19T08:50:57.849Z,24.35
2022-08-19T08:56:02.692Z,23.73
2022-08-19T09:01:07.401Z,22.92
2022-08-19T09:06:50.911Z,24.17
2022-08-19T09:12:26.739Z,24.77
2022-08-19T09:17:36.181Z,24.17
2022-08-19T09:22:39.998Z,23.80
2022-08-19T09:27:43.762Z,22.73
2022-08-19T09:32:52.837Z,23.20
2022-08-19T09:37:57.577Z,25.63
2022-08-19T09:43:12.972Z,21.50
2022-08-19T09:48:19.021Z,22.45
2022-08-19T09:53:25.982Z,24.77
2022-08-19T09:58:28.847Z,24.30
2022-08-19T10:03:32.354Z,22.90
2022-08-19T10:08:37.555Z,22.92
2022-08-19T10:13:39.674Z,22.77
2022-08-19T10:18:44.682Z,21.77
2022-08-19T10:23:53.934Z,20.37
2022-08-19T10:28:57.020Z,20.52
2022-08-19T10:34:00.641Z,19.60
2022-08-19T10:39:08.310Z,16.27
2022-08-19T10:44:13.912Z,19.15
2022-08-19T10:49:16.129Z,19.70
2022-08-19T10:54:31.199Z,19.38
2022-08-19T10:59:36.483Z,20.73
2022-08-19T11:04:39.362Z,20.70
2022-08-19T11:09:43.163Z,20.38
2022-08-19T11:14:45.022Z,21.20
2022-08-19T11:19:49.867Z,21.63
2022-08-19T11:24:51.712Z,20.45
2022-08-19T11:29:53.724Z,19.92
2022-08-19T11:34:55.640Z,23.25
2022-08-19T11:39:57.533Z,22.45
2022-08-19T11:44:59.631Z,24.02
2022-08-19T11:50:01.420Z,23.95
2022-08-19T11:55:03.969Z,23.58
2022-08-19T12:00:08.251Z,24.00
2022-08-19T12:05:12.560Z,23.98
2022-08-19T12:10:16.021Z,25.02
2022-08-19T12:15:20.927Z,25.90
2022-08-19T12:20:23.077Z,26.67
2022-08-19T12:25:25.020Z,26.17
2022-08-19T12:30:27.200Z,26.67
2022-08-19T12:35:29.855Z,28.50
2022-08-19T12:40:31.641Z,28.40
2022-08-19T12:45:33.599Z,27.90
2022-08-19T12:50:36.806Z,28.35
2022-08-19T12:55:38.793Z,29.00
2022-08-19T13:00:40.706Z,27.25
2022-08-19T13:05:43.062Z,26.83
2022-08-19T13:10:45.026Z,24.48
2022-08-19T13:15:47.016Z,24.88
2022-08-19T13:20:52.798Z,24.30
2022-08-19T13:26:03.527Z,21.92
2022-08-19T13:31:24.070Z,22.80
2022-08-19T13:36:26.510Z,21.35
2022-08-19T13:41:28.808Z,20.83
2022-08-19T13:46:31.540Z,20.52
2022-08-19T13:51:33.410Z,20.90
2022-08-19T13:56:36.497Z,18.10
2022-08-19T14:01:38.932Z,17.20
2022-08-19T14:06:41.339Z,17.02
2022-08-19T14:11:43.151Z,18.15
2022-08-19T14:16:45.003Z,16.30
2022-08-19T14:21:46.933Z,15.10
2022-08-19T14:26:49.045Z,16.20
2022-08-19T14:31:50.816Z,17.05
2022-08-19T14:36:53.250Z,17.42
2022-08-19T14:41:55.723Z,15.23
2022-08-19T14:46:57.595Z,14.20
2022-08-19T14:52:01.451Z,16.08
2022-08-19T14:57:03.504Z,13.13
2022-08-19T15:02:20.414Z,15.85
2022-08-19T15:07:28.957Z,17.48
2022-08-19T15:12:31.450Z,17.20
2022-08-19T15:17:54.849Z,16.80
2022-08-19T15:22:56.744Z,17.40
2022-08-19T15:27:58.658Z,17.35
2022-08-19T15:33:00.869Z,17.98
2022-08-19T15:38:02.854Z,20.00
2022-08-19T15:43:04.691Z,19.60
2022-08-19T15:48:07.687Z,22.25
2022-08-19T15:53:11.553Z,22.63
2022-08-19T15:58:33.322Z,23.48
2022-08-19T16:09:02.011Z,23.08
2022-08-19T16:14:04.121Z,22.15
2022-08-19T16:19:11.788Z,25.70
2022-08-19T16:24:16.145Z,23.08
2022-08-19T16:29:27.791Z,21.90
2022-08-19T16:34:38.135Z,20.63
2022-08-19T16:39:41.069Z,20.50
2022-08-19T16:44:46.140Z,22.27
2022-08-19T16:49:55.280Z,20.90
2022-08-19T16:54:57.501Z,22.30
2022-08-19T16:59:59.673Z,20.52
2022-08-19T17:05:02.042Z,21.90
2022-08-19T17:10:05.482Z,20.77
2022-08-19T17:15:11.066Z,21.45
2022-08-19T17:20:13.033Z,21.80
2022-08-19T17:25:15.868Z,21.52
2022-08-19T17:30:19.489Z,24.02
2022-08-19T17:35:24.173Z,22.05
2022-08-19T17:40:26.797Z,23.08
2022-08-19T17:45:32.000Z,26.10
2022-08-19T17:50:35.207Z,23.02
2022-08-19T17:55:37.223Z,25.13
2022-08-19T18:00:38.986Z,23.55
2022-08-19T18:05:57.041Z,25.25
2022-08-19T18:10:59.994Z,24.63
2022-08-19T18:16:03.480Z,24.23
2022-08-19T18:21:05.648Z,23.23
2022-08-19T18:26:07.701Z,24.83
2022-08-19T18:31:09.458Z,25.15
2022-08-19T18:36:11.993Z,22.20
2022-08-19T18:41:32.421Z,25.20
2022-08-19T18:46:52.697Z,26.98
2022-08-19T18:52:00.252Z,24.65
2022-08-19T18:57:05.557Z,25.30
2022-08-19T19:02:08.646Z,24.25
2022-08-19T19:07:15.270Z,22.20
2022-08-19T19:12:18.287Z,22.23
2022-08-19T19:17:26.516Z,24.77
2022-08-19T19:22:28.531Z,22.90
2022-08-19T19:27:30.361Z,23.10
2022-08-19T19:32:39.278Z,20.55
2022-08-19T19:37:43.315Z,25.50
2022-08-19T19:42:46.909Z,22.45
2022-08-19T19:47:50.196Z,24.52
2022-08-19T19:52:52.020Z,27.02
2022-08-19T19:57:54.578Z,23.45
2022-08-19T20:02:56.589Z,21.45
2022-08-19T20:08:16.716Z,25.35
2022-08-19T20:13:21.739Z,24.73
2022-08-19T20:18:24.433Z,27.73
2022-08-19T20:23:26.672Z,25.95
2022-08-19T20:28:28.622Z,25.75
2022-08-19T20:33:31.398Z,25.33
2022-08-19T20:38:34.977Z,28.05
2022-08-19T20:43:38.289Z,23.63
2022-08-19T20:48:42.620Z,25.85
2022-08-19T20:53:45.056Z,24.95
2022-08-19T20:58:50.081Z,23.42
2022-08-19T21:03:56.366Z,25.05
2022-08-19T21:08:58.115Z,24.58
2022-08-19T21:14:00.751Z,25.05
2022-08-19T21:19:02.593Z,25.38
2022-08-19T21:24:04.912Z,25.20
2022-08-19T21:29:07.132Z,24.40
2022-08-19T21:34:09.440Z,24.13
2022-08-19T21:39:11.326Z,25.80
2022-08-19T21:44:13.206Z,35.47
2022-08-19T21:49:15.009Z,30.98
2022-08-19T21:54:16.796Z,24.23
2022-08-19T21:59:18.561Z,29.00
2022-08-19T22:04:20.540Z,25.70
2022-08-19T22:09:22.355Z,23.73
2022-08-19T22:14:24.091Z,24.67
2022-08-19T22:19:25.899Z,23.55
2022-08-19T22:24:27.803Z,23.17
2022-08-19T22:29:33.809Z,26.77
2022-08-19T22:34:36.000Z,27.13
2022-08-19T22:39:38.024Z,25.60
2022-08-19T22:44:39.905Z,22.45
2022-08-19T22:49:41.802Z,21.27
2022-08-19T22:54:54.863Z,24.75
2022-08-19T22:59:58.916Z,24.42
2022-08-19T23:05:04.393Z,28.23
2022-08-19T23:10:09.812Z,25.92
2022-08-19T23:15:17.463Z,22.08
2022-08-19T23:20:23.254Z,20.50
2022-08-19T23:25:31.750Z,20.60
2022-08-19T23:30:36.783Z,22.30
2022-08-19T23:35:40.741Z,22.75
2022-08-19T23:40:42.937Z,25.30
2022-08-19T23:45:51.114Z,27.60
2022-08-19T23:50:54.141Z,25.67
2022-08-19T23:55:56.434Z,24.73
